createdAt,value
2019-05-26T00:00:09.479Z,32.60
2019-05-26T00:02:38.564Z,26.48
2019-05-26T00:05:08.546Z,28.15
2019-05-26T00:07:37.450Z,25.23
2019-05-26T00:10:08.294Z,28.38
2019-05-26T00:12:38.914Z,25.72
2019-05-26T00:15:07.950Z,28.47
2019-05-26T00:17:36.773Z,30.52
2019-05-26T00:20:06.810Z,25.68
2019-05-26T00:22:35.396Z,31.70
2019-05-26T00:25:07.564Z,31.40
2019-05-26T00:27:36.680Z,30.30
2019-05-26T00:30:10.454Z,31.58
2019-05-26T00:32:39.033Z,30.72
2019-05-26T00:35:08.137Z,28.67
2019-05-26T00:37:49.177Z,29.25
2019-05-26T00:40:09.725Z,30.80
2019-05-26T00:42:38.586Z,27.23
2019-05-26T00:45:07.886Z,24.18
2019-05-26T00:47:37.208Z,30.63
2019-05-26T00:50:07.614Z,31.93
2019-05-26T00:52:38.445Z,30.25
2019-05-26T00:55:07.548Z,20.45
2019-05-26T00:57:37.056Z,32.23
2019-05-26T01:00:07.289Z,25.18
2019-05-26T01:02:36.817Z,25.80
2019-05-26T01:05:06.810Z,24.92
2019-05-26T01:07:35.906Z,25.08
2019-05-26T01:10:09.397Z,26.20
2019-05-26T01:12:39.285Z,29.00
2019-05-26T01:15:08.378Z,24.45
2019-05-26T01:17:37.478Z,25.75
2019-05-26T01:20:07.328Z,26.70
2019-05-26T01:22:36.160Z,21.57
2019-05-26T01:25:07.733Z,27.14
2019-05-26T01:27:37.256Z,25.75
2019-05-26T01:30:07.658Z,26.78
2019-05-26T01:32:38.387Z,18.02
2019-05-26T01:35:07.387Z,21.50
2019-05-26T01:37:37.293Z,22.98
2019-05-26T01:40:07.258Z,26.20
2019-05-26T01:42:37.989Z,26.48
2019-05-26T01:45:08.598Z,23.22
2019-05-26T01:47:37.462Z,22.02
2019-05-26T01:50:07.192Z,24.82
2019-05-26T01:52:36.048Z,25.40
2019-05-26T01:55:06.790Z,23.86
2019-05-26T01:57:36.049Z,22.52
2019-05-26T02:00:07.237Z,25.92
2019-05-26T02:02:38.682Z,25.30
2019-05-26T02:05:07.465Z,20.70
2019-05-26T02:07:36.206Z,22.67
2019-05-26T02:10:06.608Z,22.48
2019-05-26T02:12:35.800Z,26.17
2019-05-26T02:15:07.451Z,22.84
2019-05-26T02:17:39.824Z,22.48
2019-05-26T02:20:09.433Z,24.90
2019-05-26T02:22:39.633Z,22.15
2019-05-26T02:25:08.621Z,21.75
2019-05-26T02:27:37.426Z,22.60
2019-05-26T02:30:07.923Z,20.75
2019-05-26T02:32:37.261Z,17.23
2019-05-26T02:35:07.064Z,18.07
2019-05-26T02:37:35.539Z,23.83
2019-05-26T02:40:08.323Z,26.75
2019-05-26T02:42:38.139Z,15.93
2019-05-26T02:45:07.715Z,17.93
2019-05-26T02:47:38.578Z,19.17
2019-05-26T02:50:07.547Z,19.17
2019-05-26T02:52:36.602Z,17.77
2019-05-26T02:55:06.759Z,19.05
2019-05-26T02:57:35.546Z,18.53
2019-05-26T03:00:08.225Z,13.60
2019-05-26T03:02:37.214Z,15.38
2019-05-26T03:05:08.362Z,15.03
2019-05-26T03:07:38.910Z,15.78
2019-05-26T03:10:07.595Z,17.25
2019-05-26T03:12:37.994Z,13.60
2019-05-26T03:15:07.594Z,13.30
2019-05-26T03:17:37.975Z,13.43
2019-05-26T03:20:06.761Z,13.43
2019-05-26T03:22:39.490Z,15.40
2019-05-26T03:25:08.072Z,17.82
2019-05-26T03:27:38.526Z,13.32
2019-05-26T03:30:07.899Z,19.12
2019-05-26T03:32:36.922Z,10.75
2019-05-26T03:35:09.595Z,13.25
2019-05-26T03:37:39.083Z,11.40
2019-05-26T03:40:08.710Z,9.73
2019-05-26T03:42:39.305Z,8.93
2019-05-26T03:45:08.309Z,11.08
2019-05-26T03:47:39.761Z,11.43
2019-05-26T03:50:08.747Z,13.70
2019-05-26T03:52:37.635Z,10.60
2019-05-26T03:55:08.955Z,11.40
2019-05-26T03:57:39.198Z,12.90
2019-05-26T04:00:11.622Z,13.32
2019-05-26T04:02:40.458Z,10.43
2019-05-26T04:05:09.267Z,10.60
2019-05-26T04:07:39.211Z,9.90
2019-05-26T04:10:08.354Z,12.10
2019-05-26T04:12:37.248Z,12.45
2019-05-26T04:15:07.271Z,10.14
2019-05-26T04:17:37.213Z,8.95
2019-05-26T04:20:06.678Z,10.10
2019-05-26T04:22:35.667Z,9.87
2019-05-26T04:25:07.948Z,8.37
2019-05-26T04:27:36.966Z,9.10
2019-05-26T04:30:06.859Z,9.04
2019-05-26T04:32:37.296Z,9.75
2019-05-26T04:35:06.978Z,11.10
2019-05-26T04:37:37.734Z,6.73
2019-05-26T04:40:26.013Z,13.30
2019-05-26T04:42:40.093Z,9.53
2019-05-26T04:45:08.992Z,9.23
2019-05-26T04:47:39.309Z,9.38
2019-05-26T04:50:09.014Z,7.50
2019-05-26T04:52:38.083Z,9.23
2019-05-26T04:55:08.128Z,8.38
2019-05-26T04:57:38.675Z,7.72
2019-05-26T05:00:07.577Z,7.67
2019-05-26T05:02:42.899Z,8.63
2019-05-26T05:14:09.407Z,6.50
2019-05-26T05:24:15.288Z,10.35
2019-05-26T05:26:56.395Z,7.58
2019-05-26T05:29:22.166Z,7.80
2019-05-26T05:31:50.746Z,7.05
2019-05-26T05:34:19.531Z,6.92
2019-05-26T05:36:48.757Z,8.08
2019-05-26T05:39:17.745Z,7.80
2019-05-26T05:41:47.848Z,8.08
2019-05-26T05:44:16.417Z,5.60
2019-05-26T05:46:45.006Z,7.20
2019-05-26T05:49:13.898Z,6.05
2019-05-26T05:51:42.887Z,8.88
2019-05-26T05:54:11.466Z,6.30
2019-05-26T05:56:40.974Z,9.03
2019-05-26T05:59:09.691Z,5.10
2019-05-26T06:01:39.667Z,4.50
2019-05-26T06:04:08.454Z,4.53
2019-05-26T06:06:37.656Z,4.75
2019-05-26T06:12:28.039Z,5.17
2019-05-26T06:15:10.568Z,6.62
2019-05-26T06:17:39.484Z,7.33
2019-05-26T06:20:08.759Z,5.00
2019-05-26T06:22:40.257Z,6.15
2019-05-26T06:25:12.718Z,5.30
2019-05-26T06:27:45.490Z,5.80
2019-05-26T06:30:18.497Z,7.23
2019-05-26T06:32:51.448Z,5.22
2019-05-26T06:35:24.104Z,6.40
2019-05-26T06:37:57.242Z,5.62
2019-05-26T06:40:30.242Z,6.10
2019-05-26T06:43:03.378Z,5.30
2019-05-26T06:45:43.049Z,5.87
2019-05-26T06:48:16.114Z,7.67
2019-05-26T06:50:49.605Z,6.22
2019-05-26T06:53:19.131Z,7.77
2019-05-26T06:55:47.713Z,7.35
2019-05-26T06:58:16.806Z,7.00
2019-05-26T07:00:46.598Z,8.20
2019-05-26T07:03:15.177Z,6.20
2019-05-26T07:05:43.757Z,5.92
2019-05-26T07:08:12.441Z,7.20
2019-05-26T07:10:44.505Z,5.70
2019-05-26T07:13:13.405Z,6.37
2019-05-26T07:15:41.975Z,8.43
2019-05-26T07:18:10.482Z,6.27
2019-05-26T07:20:39.349Z,9.50
2019-05-26T07:23:08.662Z,7.30
2019-05-26T07:25:38.248Z,6.23
2019-05-26T07:28:06.833Z,7.58
2019-05-26T07:30:39.826Z,7.95
2019-05-26T07:33:08.585Z,9.75
2019-05-26T07:35:37.900Z,8.28
2019-05-26T07:38:07.204Z,6.90
2019-05-26T07:40:35.785Z,4.58
2019-05-26T07:43:06.910Z,5.50
2019-05-26T07:45:35.924Z,4.40
2019-05-26T07:48:06.505Z,5.80
2019-05-26T07:50:35.028Z,5.15
2019-05-26T07:53:03.809Z,5.27
2019-05-26T07:55:32.397Z,5.85
2019-05-26T07:58:01.591Z,5.35
2019-05-26T08:00:39.215Z,4.75
2019-05-26T08:03:08.077Z,4.62
2019-05-26T08:05:37.196Z,7.60
2019-05-26T08:08:12.499Z,4.20
2019-05-26T08:10:37.432Z,5.50
2019-05-26T08:13:06.804Z,5.42
2019-05-26T08:15:35.924Z,4.50
2019-05-26T08:18:06.730Z,4.97
2019-05-26T08:20:37.388Z,4.00
2019-05-26T08:23:06.306Z,4.35
2019-05-26T08:25:35.154Z,3.90
2019-05-26T08:28:05.779Z,3.10
2019-05-26T08:30:34.356Z,3.83
2019-05-26T08:33:03.248Z,1.85
2019-05-26T08:35:31.835Z,2.92
2019-05-26T08:38:02.073Z,1.63
2019-05-26T08:40:31.147Z,2.53
2019-05-26T08:42:59.730Z,1.25
2019-05-26T08:45:28.838Z,0.53
2019-05-26T08:47:58.525Z,0.70
2019-05-26T08:50:29.477Z,1.37
2019-05-26T08:52:58.794Z,1.12
2019-05-26T08:55:28.602Z,2.05
2019-05-26T08:57:57.769Z,1.57
2019-05-26T09:00:29.814Z,0.60
2019-05-26T09:03:00.225Z,1.27
2019-05-26T09:05:28.737Z,0.53
2019-05-26T09:07:57.744Z,1.17
2019-05-26T09:10:26.754Z,1.98
2019-05-26T09:13:01.279Z,1.42
2019-05-26T09:15:26.475Z,1.03
2019-05-26T09:17:54.956Z,0.72
2019-05-26T09:20:23.751Z,0.70
2019-05-26T09:22:52.505Z,1.40
2019-05-26T09:25:21.352Z,1.97
2019-05-26T09:27:50.515Z,0.60
2019-05-26T09:30:19.413Z,3.90
2019-05-26T09:32:48.490Z,2.47
2019-05-26T09:35:17.263Z,1.57
2019-05-26T09:37:45.868Z,2.10
2019-05-26T09:40:15.106Z,1.27
2019-05-26T09:42:44.028Z,1.55
2019-05-26T09:45:12.817Z,2.10
2019-05-26T09:47:41.565Z,2.83
2019-05-26T09:50:10.486Z,3.23
2019-05-26T09:52:39.395Z,1.90
2019-05-26T09:55:08.180Z,1.75
2019-05-26T09:57:37.101Z,1.07
2019-05-26T10:00:10.526Z,1.98
2019-05-26T10:02:39.952Z,0.70
2019-05-26T10:05:08.541Z,0.72
2019-05-26T10:07:38.168Z,1.32
2019-05-26T10:10:07.443Z,8.73
2019-05-26T10:12:36.600Z,1.90
2019-05-26T10:15:07.071Z,4.16
2019-05-26T10:17:35.576Z,3.58
2019-05-26T10:20:07.608Z,2.94
2019-05-26T10:22:39.053Z,6.12
2019-05-26T10:25:18.685Z,5.87
2019-05-26T10:27:47.484Z,2.08
2019-05-26T10:30:16.372Z,2.30
2019-05-26T10:32:46.184Z,3.33
2019-05-26T10:35:18.677Z,1.22
2019-05-26T10:37:47.687Z,1.52
2019-05-26T10:40:17.208Z,0.70
2019-05-26T10:42:48.809Z,2.40
2019-05-26T10:45:17.904Z,3.17
2019-05-26T10:47:46.508Z,1.92
2019-05-26T10:50:17.734Z,1.57
2019-05-26T10:52:46.216Z,1.10
2019-05-26T10:55:14.921Z,2.50
2019-05-26T10:57:43.810Z,1.73
2019-05-26T11:00:18.026Z,1.00
2019-05-26T11:02:47.955Z,1.05
2019-05-26T11:05:16.801Z,2.43
2019-05-26T11:07:45.582Z,1.67
2019-05-26T11:10:14.374Z,1.70
2019-05-26T11:12:43.185Z,1.13
2019-05-26T11:15:12.256Z,1.27
2019-05-26T11:17:41.158Z,1.80
2019-05-26T11:20:10.646Z,0.68
2019-05-26T11:22:40.792Z,0.60
2019-05-26T11:25:09.989Z,1.60
2019-05-26T11:27:39.393Z,0.55
2019-05-26T11:30:09.784Z,0.50
2019-05-26T11:32:39.807Z,1.02
2019-05-26T11:35:11.457Z,1.47
2019-05-26T11:37:40.244Z,1.25
2019-05-26T11:40:11.617Z,3.08
2019-05-26T11:42:40.589Z,0.60
2019-05-26T11:45:09.469Z,3.05
2019-05-26T11:47:38.153Z,1.55
2019-05-26T11:50:07.029Z,0.80
2019-05-26T11:52:39.034Z,2.75
2019-05-26T11:55:08.563Z,1.62
2019-05-26T11:57:37.754Z,0.98
2019-05-26T12:00:07.758Z,0.90
2019-05-26T12:02:38.486Z,1.00
2019-05-26T12:05:10.209Z,2.20
2019-05-26T12:07:40.424Z,1.12
2019-05-26T12:10:14.363Z,0.93
2019-05-26T12:12:43.604Z,1.92
2019-05-26T12:15:12.681Z,1.03
2019-05-26T12:17:41.444Z,1.50
2019-05-26T12:20:10.741Z,0.70
2019-05-26T12:22:40.166Z,1.62
2019-05-26T12:25:10.681Z,1.13
2019-05-26T12:27:39.353Z,1.77
2019-05-26T12:30:10.635Z,1.27
2019-05-26T12:32:40.285Z,0.90
2019-05-26T12:35:09.268Z,1.75
2019-05-26T12:37:39.700Z,1.45
2019-05-26T12:40:08.998Z,1.75
2019-05-26T12:42:38.293Z,1.80
2019-05-26T12:45:07.861Z,0.70
2019-05-26T12:47:39.045Z,3.22
2019-05-26T12:50:09.279Z,0.98
2019-05-26T12:52:38.059Z,1.17
2019-05-26T12:55:09.202Z,2.60
2019-05-26T12:57:41.159Z,1.37
2019-05-26T13:00:10.686Z,1.98
2019-05-26T13:02:44.310Z,3.12
2019-05-26T13:05:12.860Z,4.33
2019-05-26T13:07:44.432Z,1.50
2019-05-26T13:10:13.640Z,3.45
2019-05-26T13:12:42.781Z,4.08
2019-05-26T13:15:11.903Z,2.03
2019-05-26T13:17:40.466Z,3.87
2019-05-26T13:20:10.317Z,3.08
2019-05-26T13:22:41.265Z,3.27
2019-05-26T13:25:11.633Z,2.87
2019-05-26T13:27:40.728Z,2.27
2019-05-26T13:30:16.805Z,2.30
2019-05-26T13:32:45.904Z,2.95
2019-05-26T13:35:14.869Z,3.13
2019-05-26T13:37:43.934Z,2.42
2019-05-26T13:40:13.034Z,3.10
2019-05-26T13:42:42.011Z,1.50
2019-05-26T13:45:22.296Z,2.90
2019-05-26T13:47:44.091Z,3.20
2019-05-26T13:50:14.475Z,2.35
2019-05-26T13:52:46.105Z,1.70
2019-05-26T13:55:15.333Z,2.20
2019-05-26T13:57:45.076Z,4.78
2019-05-26T14:00:17.715Z,2.58
2019-05-26T14:02:48.072Z,2.47
2019-05-26T14:05:17.096Z,4.13
2019-05-26T14:07:45.894Z,3.13
2019-05-26T14:10:16.014Z,2.07
2019-05-26T14:12:44.899Z,3.67
2019-05-26T14:15:15.586Z,1.47
2019-05-26T14:17:44.651Z,1.17
2019-05-26T14:20:14.741Z,2.60
2019-05-26T14:22:46.326Z,1.15
2019-05-26T14:25:19.786Z,3.58
2019-05-26T14:27:49.959Z,2.02
2019-05-26T14:30:23.022Z,2.97
2019-05-26T14:32:53.525Z,1.20
2019-05-26T14:35:22.122Z,3.03
2019-05-26T14:37:51.016Z,1.20
2019-05-26T14:40:20.893Z,2.83
2019-05-26T14:42:49.801Z,1.10
2019-05-26T14:45:18.896Z,1.27
2019-05-26T14:47:48.005Z,1.50
2019-05-26T14:50:18.395Z,2.00
2019-05-26T14:52:47.611Z,1.50
2019-05-26T14:55:16.434Z,1.53
2019-05-26T14:57:45.288Z,0.80
2019-05-26T15:00:17.767Z,1.82
2019-05-26T15:02:48.410Z,1.98
2019-05-26T15:05:17.384Z,4.33
2019-05-26T15:07:46.151Z,2.20
2019-05-26T15:10:15.288Z,2.10
2019-05-26T15:12:44.500Z,1.57
2019-05-26T15:15:15.089Z,2.57
2019-05-26T15:17:45.209Z,1.85
2019-05-26T15:20:15.632Z,3.73
2019-05-26T15:22:44.217Z,3.30
2019-05-26T15:25:13.107Z,2.22
2019-05-26T15:27:42.126Z,3.27
2019-05-26T15:30:14.463Z,2.70
2019-05-26T15:32:43.462Z,3.37
2019-05-26T15:35:12.039Z,2.77
2019-05-26T15:37:40.926Z,2.83
2019-05-26T15:40:09.921Z,3.03
2019-05-26T15:42:40.372Z,1.63
2019-05-26T15:45:09.118Z,2.05
2019-05-26T15:47:40.066Z,1.87
2019-05-26T15:50:13.740Z,3.05
2019-05-26T15:52:42.045Z,2.17
2019-05-26T15:55:11.141Z,2.20
2019-05-26T15:57:39.919Z,2.07
2019-05-26T16:00:08.971Z,1.80
2019-05-26T16:02:40.498Z,2.52
2019-05-26T16:05:10.729Z,3.52
2019-05-26T16:07:39.374Z,2.00
2019-05-26T16:10:08.834Z,1.77
2019-05-26T16:12:38.385Z,2.47
2019-05-26T16:15:08.501Z,3.40
2019-05-26T16:17:39.017Z,3.30
2019-05-26T16:20:08.533Z,2.15
2019-05-26T16:22:37.765Z,2.33
2019-05-26T16:25:07.185Z,1.90
2019-05-26T16:27:36.360Z,3.33
2019-05-26T16:30:07.702Z,2.44
2019-05-26T16:32:36.362Z,3.47
2019-05-26T16:35:06.163Z,3.87
2019-05-26T16:37:34.757Z,3.42
2019-05-26T16:40:06.687Z,2.35
2019-05-26T16:42:35.633Z,3.53
2019-05-26T16:45:06.995Z,2.85
2019-05-26T16:47:36.200Z,2.22
2019-05-26T16:50:08.109Z,8.10
2019-05-26T16:52:37.739Z,7.17
2019-05-26T16:55:08.165Z,2.98
2019-05-26T16:57:40.531Z,3.10
2019-05-26T17:00:09.633Z,2.40
2019-05-26T17:02:39.951Z,2.83
2019-05-26T17:05:08.637Z,3.90
2019-05-26T17:07:37.934Z,3.10
2019-05-26T17:10:08.637Z,3.77
2019-05-26T17:12:41.977Z,2.60
2019-05-26T17:15:15.737Z,4.13
2019-05-26T17:17:42.927Z,3.10
2019-05-26T17:20:13.261Z,7.00
2019-05-26T17:22:42.020Z,5.60
2019-05-26T17:25:11.328Z,8.00
2019-05-26T17:27:40.307Z,2.40
2019-05-26T17:30:09.721Z,3.20
2019-05-26T17:32:39.801Z,3.20
2019-05-26T17:35:08.493Z,3.10
2019-05-26T17:37:38.022Z,2.72
2019-05-26T17:40:07.505Z,3.15
2019-05-26T17:42:38.470Z,3.50
2019-05-26T17:45:07.663Z,3.65
2019-05-26T17:47:37.724Z,1.42
2019-05-26T17:50:07.469Z,1.42
2019-05-26T17:52:36.351Z,2.67
2019-05-26T17:55:07.243Z,1.87
2019-05-26T17:57:37.226Z,1.07
2019-05-26T18:00:10.623Z,1.40
2019-05-26T18:02:40.713Z,1.17
2019-05-26T18:05:10.525Z,1.70
2019-05-26T18:07:40.667Z,2.58
2019-05-26T18:10:09.642Z,1.10
2019-05-26T18:12:38.866Z,1.50
2019-05-26T18:15:08.975Z,1.05
2019-05-26T18:17:47.149Z,1.07
2019-05-26T18:20:10.406Z,2.40
2019-05-26T18:22:40.327Z,1.37
2019-05-26T18:25:09.652Z,2.62
2019-05-26T18:27:39.056Z,2.20
2019-05-26T18:30:08.232Z,3.90
2019-05-26T18:32:38.068Z,2.20
2019-05-26T18:35:07.678Z,2.20
2019-05-26T18:37:39.533Z,3.30
2019-05-26T18:40:09.048Z,2.10
2019-05-26T18:42:40.972Z,4.47
2019-05-26T18:45:10.195Z,1.92
2019-05-26T18:47:39.456Z,2.25
2019-05-26T18:50:08.713Z,2.83
2019-05-26T18:52:37.894Z,2.15
2019-05-26T18:55:08.067Z,2.02
2019-05-26T18:57:36.897Z,2.02
2019-05-26T19:00:09.877Z,3.87
2019-05-26T19:02:40.407Z,3.37
2019-05-26T19:05:08.953Z,3.67
2019-05-26T19:07:40.745Z,3.05
2019-05-26T19:10:09.837Z,5.00
2019-05-26T19:12:38.369Z,4.58
2019-05-26T19:15:08.304Z,2.75
2019-05-26T19:17:37.298Z,3.60
2019-05-26T19:20:16.158Z,2.80
2019-05-26T19:25:23.212Z,3.80
2019-05-26T19:27:52.208Z,5.20
2019-05-26T19:30:23.243Z,3.37
2019-05-26T19:32:53.771Z,5.12
2019-05-26T19:35:22.868Z,5.00
2019-05-26T19:37:53.635Z,3.53
2019-05-26T19:40:22.387Z,3.83
2019-05-26T19:42:54.076Z,3.45
2019-05-26T19:45:25.799Z,5.03
2019-05-26T19:47:54.506Z,2.65
2019-05-26T19:50:23.160Z,5.63
2019-05-26T19:52:51.851Z,3.37
2019-05-26T19:55:21.587Z,5.47
2019-05-26T19:57:50.449Z,3.08
2019-05-26T20:00:24.159Z,3.03
2019-05-26T20:02:56.285Z,2.40
2019-05-26T20:05:24.796Z,2.60
2019-05-26T20:07:53.373Z,2.85
2019-05-26T20:10:22.534Z,3.67
2019-05-26T20:12:51.464Z,6.00
2019-05-26T20:15:24.048Z,4.10
2019-05-26T20:17:53.032Z,3.53
2019-05-26T20:20:23.276Z,2.72
2019-05-26T20:22:52.044Z,3.77
2019-05-26T20:25:20.847Z,5.03
2019-05-26T20:27:57.861Z,4.60
2019-05-26T20:30:27.127Z,5.03
2019-05-26T20:32:55.811Z,5.47
2019-05-26T20:35:24.369Z,2.40
2019-05-26T20:37:57.961Z,6.57
2019-05-26T20:40:28.085Z,2.52
2019-05-26T20:42:57.307Z,3.62
2019-05-26T20:45:25.969Z,5.28
2019-05-26T20:47:54.553Z,3.62
2019-05-26T20:50:29.223Z,2.87
2019-05-26T20:52:53.801Z,5.15
2019-05-26T20:55:24.734Z,5.35
2019-05-26T20:57:53.461Z,3.60
2019-05-26T21:00:25.700Z,4.42
2019-05-26T21:02:54.748Z,7.40
2019-05-26T21:05:26.190Z,4.83
2019-05-26T21:07:54.980Z,5.57
2019-05-26T21:10:23.565Z,5.80
2019-05-26T21:12:52.148Z,3.47
2019-05-26T21:15:20.909Z,4.08
2019-05-26T21:17:49.844Z,4.50
2019-05-26T21:20:19.226Z,3.97
2019-05-26T21:22:48.832Z,2.85
2019-05-26T21:25:17.516Z,3.63
2019-05-26T21:27:46.093Z,7.28
2019-05-26T21:30:14.874Z,4.25
2019-05-26T21:32:44.005Z,4.33
2019-05-26T21:35:12.619Z,8.27
2019-05-26T21:37:41.254Z,4.20
2019-05-26T21:40:10.134Z,8.10
2019-05-26T21:42:39.865Z,6.13
2019-05-26T21:45:08.864Z,3.62
2019-05-26T21:47:39.364Z,7.87
2019-05-26T21:50:09.541Z,6.03
2019-05-26T21:52:38.676Z,3.47
2019-05-26T21:55:08.114Z,3.95
2019-05-26T21:57:36.619Z,2.83
2019-05-26T22:00:11.699Z,5.90
2019-05-26T22:02:42.049Z,4.50
2019-05-26T22:05:11.358Z,3.95
2019-05-26T22:07:41.364Z,9.13
2019-05-26T22:10:10.217Z,3.23
2019-05-26T22:12:40.972Z,6.20
2019-05-26T22:15:10.213Z,5.93
2019-05-26T22:17:40.631Z,4.70
2019-05-26T22:20:10.924Z,4.15
2019-05-26T22:22:41.507Z,4.12
2019-05-26T22:25:11.993Z,5.80
2019-05-26T22:27:40.858Z,3.55
2019-05-26T22:30:10.655Z,3.57
2019-05-26T22:32:39.886Z,4.47
2019-05-26T22:35:08.989Z,3.58
2019-05-26T22:37:38.533Z,3.35
2019-05-26T22:40:09.081Z,3.90
2019-05-26T22:42:38.720Z,6.25
2019-05-26T22:45:10.229Z,4.23
2019-05-26T22:47:40.689Z,5.27
2019-05-26T22:50:09.549Z,3.57
2019-05-26T22:52:39.978Z,2.30
2019-05-26T22:55:08.841Z,3.52
2019-05-26T22:57:37.507Z,2.45
2019-05-26T23:00:07.398Z,2.20
2019-05-26T23:02:37.250Z,2.52
2019-05-26T23:05:07.762Z,3.12
2019-05-26T23:07:36.692Z,2.40
2019-05-26T23:10:07.040Z,4.10
2019-05-26T23:12:36.107Z,2.62
2019-05-26T23:15:09.413Z,2.47
2019-05-26T23:17:39.454Z,3.40
2019-05-26T23:20:10.071Z,1.47
2019-05-26T23:22:41.594Z,2.25
2019-05-26T23:25:10.485Z,4.63
2019-05-26T23:27:40.606Z,1.85
2019-05-26T23:30:09.418Z,2.20
2019-05-26T23:32:38.278Z,1.80
2019-05-26T23:35:07.123Z,2.35
2019-05-26T23:37:35.641Z,2.42
2019-05-26T23:40:06.455Z,1.52
2019-05-26T23:42:34.961Z,2.90
2019-05-26T23:45:05.006Z,1.03
2019-05-26T23:47:34.071Z,4.28
2019-05-26T23:50:02.670Z,1.05
2019-05-26T23:52:31.751Z,1.47
2019-05-26T23:55:00.593Z,1.10
2019-05-26T23:57:30.354Z,0.43
2019-05-26T23:59:58.929Z,2.42
